Time;durP1;ratioP1;P1;durP2;ratioP2;P2;SDS_P1;SDS_P2;PMS_P1;PMS_P2;Temp;Humidity;BMP_temperature;BMP_pressure;BME280_temperature;BME280_humidity;BME280_pressure;Samples;Min_cycle;Max_cycle;Signal;HPM_P1;HPM_P2
2023/01/22 00:02:16;;;;;;;40.50;13.40;;;-0.80;99.90;;;;;;4972665;28;20213;-71
2023/01/22 00:04:41;;;;;;;44.17;14.40;;;-0.70;99.90;;;;;;4973102;28;20652;-72
2023/01/22 00:07:07;;;;;;;39.57;13.10;;;-0.70;99.90;;;;;;4972892;28;20186;-73
2023/01/22 00:09:32;;;;;;;43.10;14.40;;;-0.70;99.90;;;;;;4973160;28;20240;-72
2023/01/22 00:11:58;;;;;;;41.37;14.40;;;-0.70;99.90;;;;;;4972604;28;20222;-71
2023/01/22 00:14:23;;;;;;;41.60;14.57;;;-0.70;99.90;;;;;;4964949;28;20185;-72
2023/01/22 00:16:49;;;;;;;43.03;13.50;;;-0.70;99.90;;;;;;4972973;28;20205;-72
2023/01/22 00:19:14;;;;;;;43.10;15.53;;;-0.70;99.90;;;;;;4972664;28;20274;-72
2023/01/22 00:21:40;;;;;;;42.70;13.70;;;-0.70;99.90;;;;;;4971412;28;20252;-72
2023/01/22 00:24:05;;;;;;;39.77;13.77;;;-0.70;99.90;;;;;;4971509;28;20203;-72
2023/01/22 00:26:31;;;;;;;40.10;14.40;;;-0.70;99.90;;;;;;4972796;28;20214;-72
2023/01/22 00:28:56;;;;;;;35.67;12.70;;;-0.70;99.90;;;;;;4971811;28;20205;-72
2023/01/22 00:31:22;;;;;;;41.00;13.63;;;-0.60;99.90;;;;;;4972144;28;20224;-72
2023/01/22 00:33:48;;;;;;;40.17;14.50;;;-0.60;99.90;;;;;;4972469;28;20183;-72
2023/01/22 00:36:18;;;;;;;41.50;14.20;;;-0.60;99.90;;;;;;4972394;28;20270;-73
2023/01/22 00:38:46;;;;;;;39.73;13.87;;;-0.60;99.90;;;;;;4972575;28;20215;-72
2023/01/22 00:41:12;;;;;;;39.70;12.77;;;-0.50;99.90;;;;;;4971309;28;20498;-72
2023/01/22 00:43:38;;;;;;;40.83;13.63;;;-0.50;99.90;;;;;;4972199;28;20447;-72
2023/01/22 00:46:05;;;;;;;39.87;12.53;;;-0.60;99.90;;;;;;4972303;28;20510;-72
2023/01/22 00:48:31;;;;;;;39.63;12.63;;;-0.60;99.90;;;;;;4972338;28;20505;-72
2023/01/22 00:50:56;;;;;;;40.90;13.90;;;-0.60;99.90;;;;;;4972169;28;20481;-72
2023/01/22 00:53:22;;;;;;;41.60;13.70;;;-0.60;99.90;;;;;;4971316;28;20559;-72
2023/01/22 00:55:56;;;;;;;41.43;13.23;;;-0.60;99.90;;;;;;4972620;28;20190;-72
2023/01/22 00:58:22;;;;;;;38.33;13.50;;;-0.50;99.90;;;;;;4972520;28;20227;-73
2023/01/22 01:00:47;;;;;;;37.60;13.83;;;-0.50;99.90;;;;;;4972931;28;20489;-72
2023/01/22 01:03:31;;;;;;;36.87;13.40;;;-0.50;99.90;;;;;;4971994;28;20201;-73
2023/01/22 01:06:11;;;;;;;39.20;13.10;;;-0.50;99.90;;;;;;4972658;28;20262;-72
2023/01/22 01:08:38;;;;;;;33.90;11.13;;;-0.50;99.90;;;;;;4966179;28;20953;-73
2023/01/22 01:11:06;;;;;;;42.33;13.50;;;-0.50;99.90;;;;;;4972453;28;20474;-73
2023/01/22 01:13:36;;;;;;;39.27;13.00;;;-0.50;99.90;;;;;;4972332;28;20468;-72
2023/01/22 01:16:28;;;;;;;36.67;12.50;;;-0.50;99.90;;;;;;4972321;28;20445;-73
2023/01/22 01:18:57;;;;;;;37.60;13.93;;;-0.50;99.90;;;;;;4972483;28;20473;-72
2023/01/22 01:21:22;;;;;;;33.40;12.17;;;-0.50;99.90;;;;;;4972391;28;20956;-73
2023/01/22 01:23:48;;;;;;;35.27;13.03;;;-0.50;99.90;;;;;;4972275;28;20529;-73
2023/01/22 01:26:15;;;;;;;40.80;14.77;;;-0.50;99.90;;;;;;4973226;28;20746;-72
2023/01/22 01:28:42;;;;;;;38.20;13.47;;;-0.50;99.90;;;;;;4972925;28;20187;-73
2023/01/22 01:31:11;;;;;;;37.77;13.37;;;-0.50;99.90;;;;;;4971535;28;20512;-72
2023/01/22 01:33:37;;;;;;;37.27;13.13;;;-0.50;99.90;;;;;;4971939;28;21007;-72
2023/01/22 01:36:09;;;;;;;40.33;13.83;;;-0.40;99.90;;;;;;4971947;28;20483;-72
2023/01/22 01:38:35;;;;;;;42.33;14.73;;;-0.50;99.90;;;;;;4965156;28;20186;-72
2023/01/22 01:41:00;;;;;;;40.00;12.70;;;-0.40;99.90;;;;;;4971965;28;20448;-72
2023/01/22 01:43:26;;;;;;;35.30;11.87;;;-0.40;99.90;;;;;;4971428;28;20192;-72
2023/01/22 01:45:53;;;;;;;38.73;13.50;;;-0.40;99.90;;;;;;4971989;28;20190;-72
2023/01/22 01:48:34;;;;;;;39.27;12.10;;;-0.30;99.90;;;;;;4971561;28;20927;-72
2023/01/22 01:51:07;;;;;;;45.03;15.23;;;-0.30;99.90;;;;;;4971736;28;20472;-71
2023/01/22 01:53:33;;;;;;;37.83;12.70;;;-0.40;99.90;;;;;;4964335;28;20783;-72
2023/01/22 01:56:00;;;;;;;36.03;11.20;;;-0.40;99.90;;;;;;4971919;28;20477;-71
2023/01/22 01:58:29;;;;;;;38.27;12.70;;;-0.40;99.90;;;;;;4986384;28;20443;-72
2023/01/22 03:31:32;;;;;;;41.97;13.37;;;-0.20;99.90;;;;;;5525426;23;20565;-75
2023/01/22 03:33:57;;;;;;;42.53;12.40;;;-0.20;99.90;;;;;;4952174;28;20433;-75
2023/01/22 03:36:23;;;;;;;41.50;14.03;;;-0.20;99.90;;;;;;4953539;28;20202;-74
2023/01/22 03:38:48;;;;;;;42.00;13.83;;;-0.20;99.90;;;;;;4954472;28;20203;-76
2023/01/22 03:41:16;;;;;;;42.87;14.60;;;-0.20;99.90;;;;;;4954108;28;20681;-74
2023/01/22 03:43:42;;;;;;;39.53;12.90;;;-0.20;99.90;;;;;;4953944;28;20192;-75
2023/01/22 03:46:12;;;;;;;42.10;13.10;;;-0.20;99.90;;;;;;4954257;28;20549;-74
2023/01/22 03:48:38;;;;;;;42.50;13.73;;;-0.20;99.90;;;;;;4954163;28;20195;-74
2023/01/22 03:51:10;;;;;;;41.57;13.33;;;-0.20;99.90;;;;;;4953880;28;20491;-74
2023/01/22 03:53:36;;;;;;;40.40;13.37;;;-0.20;99.90;;;;;;4953692;28;20446;-75
2023/01/22 03:56:05;;;;;;;42.27;13.80;;;-0.20;99.90;;;;;;4954357;28;20442;-76
2023/01/22 03:58:31;;;;;;;40.37;12.83;;;-0.20;99.90;;;;;;4953479;28;20187;-74
2023/01/22 04:01:00;;;;;;;45.63;14.27;;;-0.20;99.90;;;;;;4954183;28;20464;-75
2023/01/22 04:03:27;;;;;;;40.47;12.53;;;-0.20;99.90;;;;;;4953539;28;20440;-74
2023/01/22 04:05:53;;;;;;;43.63;13.63;;;-0.20;99.90;;;;;;4954057;28;20469;-75
2023/01/22 04:08:19;;;;;;;42.07;14.40;;;-0.10;99.90;;;;;;4953637;28;20450;-75
2023/01/22 04:10:44;;;;;;;42.27;14.07;;;-0.10;99.90;;;;;;4953492;28;20476;-76
2023/01/22 04:13:10;;;;;;;47.13;14.00;;;-0.10;99.90;;;;;;4952899;28;20229;-75
2023/01/22 04:15:35;;;;;;;39.70;13.27;;;-0.20;99.90;;;;;;4953478;28;20565;-75
2023/01/22 04:18:01;;;;;;;38.93;13.53;;;-0.20;99.90;;;;;;4953909;28;20200;-74
2023/01/22 04:20:26;;;;;;;41.00;13.87;;;-0.10;99.90;;;;;;4952854;28;20665;-74
2023/01/22 04:22:52;;;;;;;43.50;14.37;;;-0.10;99.90;;;;;;4953252;28;20207;-74
2023/01/22 04:25:17;;;;;;;47.60;15.40;;;-0.10;99.90;;;;;;4952797;28;20245;-74
2023/01/22 04:27:44;;;;;;;43.67;13.83;;;-0.10;99.90;;;;;;4953253;28;20189;-76
2023/01/22 04:30:10;;;;;;;42.70;14.30;;;-0.20;99.90;;;;;;4953507;28;20305;-76
2023/01/22 04:32:35;;;;;;;47.27;14.60;;;-0.10;99.90;;;;;;4952834;28;21058;-76
2023/01/22 04:35:02;;;;;;;45.33;13.00;;;-0.10;99.90;;;;;;4953478;28;20526;-74
2023/01/22 04:37:28;;;;;;;45.40;14.73;;;-0.10;99.90;;;;;;4953337;28;20783;-75
2023/01/22 04:39:54;;;;;;;43.10;14.93;;;-0.10;99.90;;;;;;4953591;28;20459;-75
2023/01/22 04:42:19;;;;;;;44.90;15.23;;;-0.10;99.90;;;;;;4953029;28;20444;-71
2023/01/22 04:44:45;;;;;;;44.77;14.13;;;-0.10;99.90;;;;;;4952325;28;20264;-72
2023/01/22 04:47:10;;;;;;;43.53;15.50;;;-0.10;99.90;;;;;;4953559;28;20280;-75
2023/01/22 04:49:36;;;;;;;39.40;12.90;;;-0.10;99.90;;;;;;4953294;28;20200;-75
2023/01/22 04:52:01;;;;;;;39.90;13.97;;;-0.10;99.90;;;;;;4953368;28;20605;-74
2023/01/22 04:54:27;;;;;;;43.97;14.10;;;-0.10;99.90;;;;;;4951817;28;20204;-76
2023/01/22 04:56:52;;;;;;;44.90;14.93;;;-0.10;99.90;;;;;;4951312;28;20205;-74
2023/01/22 04:59:18;;;;;;;49.60;16.53;;;-0.10;99.90;;;;;;4953578;28;20186;-74
2023/01/22 05:01:43;;;;;;;45.73;15.87;;;-0.10;99.90;;;;;;4951607;28;20622;-73
2023/01/22 05:04:09;;;;;;;50.47;17.40;;;-0.20;99.90;;;;;;4953027;28;20258;-71
2023/01/22 05:06:35;;;;;;;48.47;15.43;;;-0.10;99.90;;;;;;4952629;28;20195;-72
2023/01/22 05:09:00;;;;;;;45.07;14.33;;;-0.10;99.90;;;;;;4953408;28;21022;-73
2023/01/22 05:11:26;;;;;;;44.50;15.60;;;-0.10;99.90;;;;;;4952941;28;20225;-71
2023/01/22 05:13:53;;;;;;;47.83;16.23;;;-0.10;99.90;;;;;;4952985;28;20216;-72
2023/01/22 05:16:18;;;;;;;49.30;15.73;;;-0.10;99.90;;;;;;4953895;28;20180;-72
2023/01/22 05:18:44;;;;;;;48.10;16.33;;;-0.10;99.90;;;;;;4953568;28;20420;-74
2023/01/22 05:21:10;;;;;;;46.07;15.50;;;-0.10;99.90;;;;;;4953725;28;20205;-72
2023/01/22 05:23:35;;;;;;;44.53;14.63;;;-0.10;99.90;;;;;;4953131;28;20189;-72
2023/01/22 05:26:01;;;;;;;42.33;14.10;;;-0.10;99.90;;;;;;4953282;28;20191;-72
2023/01/22 05:28:26;;;;;;;48.73;15.90;;;-0.10;99.90;;;;;;4953121;28;20180;-72
2023/01/22 05:30:52;;;;;;;49.43;14.90;;;-0.10;99.90;;;;;;4952719;28;20692;-72
2023/01/22 05:33:17;;;;;;;51.30;16.27;;;-0.10;99.90;;;;;;4951578;29;20645;-73
2023/01/22 05:35:43;;;;;;;49.73;15.53;;;-0.10;99.90;;;;;;4952779;28;20197;-71
2023/01/22 05:38:08;;;;;;;49.93;15.00;;;-0.10;99.90;;;;;;4955638;28;20556;-72
2023/01/22 05:40:34;;;;;;;46.23;15.37;;;-0.10;99.90;;;;;;4956722;28;20188;-72
2023/01/22 05:43:02;;;;;;;48.93;15.60;;;0.00;99.90;;;;;;4957320;28;20679;-72
2023/01/22 05:45:27;;;;;;;46.10;14.87;;;0.00;99.90;;;;;;4957342;28;20387;-72
2023/01/22 05:47:53;;;;;;;54.30;15.80;;;0.00;99.90;;;;;;4956862;28;20913;-71
2023/01/22 05:50:20;;;;;;;54.73;15.43;;;0.00;99.90;;;;;;4956805;28;20209;-72
2023/01/22 05:52:46;;;;;;;48.87;15.60;;;0.00;99.90;;;;;;4956323;28;20194;-74
2023/01/22 05:55:11;;;;;;;53.73;15.40;;;0.00;99.90;;;;;;4956460;28;20425;-71
2023/01/22 05:57:37;;;;;;;57.27;15.47;;;0.00;99.90;;;;;;4956212;28;20188;-72
2023/01/22 06:00:04;;;;;;;52.90;16.43;;;0.00;99.90;;;;;;4956328;28;20182;-73
2023/01/22 06:02:30;;;;;;;54.20;15.30;;;0.00;99.90;;;;;;4955714;28;20254;-72
2023/01/22 06:04:56;;;;;;;49.27;14.70;;;0.00;99.90;;;;;;4956109;28;20786;-72
2023/01/22 06:07:21;;;;;;;58.23;17.07;;;0.00;99.90;;;;;;4956229;28;20187;-72
2023/01/22 06:09:47;;;;;;;54.37;16.10;;;0.00;99.90;;;;;;4955799;28;20180;-72
2023/01/22 06:12:14;;;;;;;53.27;15.43;;;0.10;99.90;;;;;;4954545;28;20230;-72
2023/01/22 06:14:40;;;;;;;52.20;15.57;;;0.10;99.90;;;;;;4955641;28;20593;-72
2023/01/22 06:17:06;;;;;;;48.40;14.40;;;0.10;99.90;;;;;;4956044;28;20479;-73
2023/01/22 06:19:31;;;;;;;49.50;16.23;;;0.10;99.90;;;;;;4955760;28;20452;-72
2023/01/22 06:21:56;;;;;;;47.13;14.43;;;0.10;99.90;;;;;;4955830;28;20210;-74
2023/01/22 06:24:22;;;;;;;49.03;15.80;;;0.20;99.90;;;;;;4955726;28;20186;-74
2023/01/22 06:26:47;;;;;;;55.87;16.87;;;0.20;99.90;;;;;;4955483;28;20190;-74
2023/01/22 06:29:13;;;;;;;50.70;15.67;;;0.20;99.90;;;;;;4955856;28;20194;-74
2023/01/22 06:31:39;;;;;;;56.07;16.23;;;0.10;99.90;;;;;;4947380;28;20217;-74
2023/01/22 06:34:04;;;;;;;53.37;18.13;;;0.10;99.90;;;;;;4955354;28;20246;-73
2023/01/22 06:36:30;;;;;;;51.53;16.23;;;0.10;99.90;;;;;;4956020;28;20182;-74
2023/01/22 06:38:55;;;;;;;52.80;16.47;;;0.10;99.90;;;;;;4955569;28;20225;-74
2023/01/22 06:41:21;;;;;;;48.03;16.80;;;0.10;99.90;;;;;;4955617;28;20213;-75
2023/01/22 06:43:47;;;;;;;52.40;15.30;;;0.10;99.90;;;;;;4955273;28;20728;-74
2023/01/22 06:46:12;;;;;;;52.30;15.77;;;0.10;99.90;;;;;;4955580;28;20430;-74
2023/01/22 06:48:38;;;;;;;53.30;16.17;;;0.10;99.90;;;;;;4954836;28;20194;-72
2023/01/22 06:51:03;;;;;;;55.20;16.40;;;0.10;99.90;;;;;;4955475;28;20297;-73
2023/01/22 06:53:29;;;;;;;56.10;16.50;;;0.10;99.90;;;;;;4955025;28;20192;-72
2023/01/22 06:55:57;;;;;;;49.13;16.27;;;0.10;99.90;;;;;;4955489;28;20258;-72
2023/01/22 06:58:23;;;;;;;52.87;15.73;;;0.20;99.90;;;;;;4955462;28;20245;-72
2023/01/22 07:00:48;;;;;;;54.23;18.00;;;0.10;99.90;;;;;;4954988;28;20440;-72
2023/01/22 07:03:15;;;;;;;56.57;17.07;;;0.20;99.90;;;;;;4955307;28;20655;-73
2023/01/22 07:05:41;;;;;;;53.57;16.37;;;0.20;99.90;;;;;;4954953;28;20244;-72
2023/01/22 07:08:06;;;;;;;51.70;15.97;;;0.20;99.90;;;;;;4955416;28;20943;-73
2023/01/22 07:10:32;;;;;;;60.30;18.30;;;0.20;99.90;;;;;;4954758;28;20288;-73
2023/01/22 07:13:03;;;;;;;51.43;17.00;;;0.20;99.90;;;;;;4954984;28;20186;-72
2023/01/22 07:15:28;;;;;;;53.97;16.20;;;0.20;99.90;;;;;;4955018;28;20589;-72
2023/01/22 07:17:54;;;;;;;55.23;17.10;;;0.20;99.90;;;;;;4954833;28;20425;-72
2023/01/22 07:20:21;;;;;;;52.23;15.90;;;0.20;99.90;;;;;;4954875;28;20223;-72
2023/01/22 07:22:46;;;;;;;53.07;16.40;;;0.20;99.90;;;;;;4954344;28;20654;-72
2023/01/22 07:25:12;;;;;;;52.60;16.00;;;0.20;99.90;;;;;;4954845;28;20424;-73
2023/01/22 07:27:37;;;;;;;52.60;15.77;;;0.30;99.90;;;;;;4954550;28;20247;-73
2023/01/22 07:30:04;;;;;;;53.07;17.87;;;0.30;99.90;;;;;;4956134;28;20448;-72
2023/01/22 07:32:30;;;;;;;58.83;16.80;;;0.30;99.90;;;;;;4954495;28;20650;-73
2023/01/22 07:34:55;;;;;;;50.83;16.23;;;0.30;99.90;;;;;;4955598;28;20427;-73
2023/01/22 07:37:21;;;;;;;56.63;18.40;;;0.40;99.90;;;;;;4955047;28;20219;-72
2023/01/22 07:39:47;;;;;;;50.57;15.83;;;0.40;99.90;;;;;;4953038;29;20223;-71
2023/01/22 07:42:12;;;;;;;51.77;17.40;;;0.30;99.90;;;;;;4954398;28;20208;-72
2023/01/22 07:44:39;;;;;;;54.50;17.50;;;0.30;99.90;;;;;;4954094;28;20216;-72
2023/01/22 07:47:05;;;;;;;50.90;16.70;;;0.30;99.90;;;;;;4954537;28;20188;-74
2023/01/22 07:49:31;;;;;;;57.53;17.33;;;0.30;99.90;;;;;;4954286;28;20493;-71
2023/01/22 07:51:57;;;;;;;55.00;18.07;;;0.30;99.90;;;;;;4954134;28;20484;-72
2023/01/22 07:54:22;;;;;;;54.43;17.10;;;0.40;99.90;;;;;;4954191;28;20193;-72
2023/01/22 07:56:48;;;;;;;55.10;18.27;;;0.50;99.90;;;;;;4954122;28;20312;-72
2023/01/22 07:59:14;;;;;;;55.63;17.80;;;0.50;99.90;;;;;;4953850;28;20177;-72
2023/01/22 08:01:39;;;;;;;54.83;16.90;;;0.50;99.90;;;;;;4953578;28;20287;-73
2023/01/22 08:04:05;;;;;;;58.60;16.03;;;0.50;99.90;;;;;;4954032;28;20236;-72
2023/01/22 08:06:31;;;;;;;37.87;16.37;;;0.60;99.90;;;;;;4954031;28;20182;-73
2023/01/22 08:08:58;;;;;;;36.60;17.97;;;0.60;99.90;;;;;;4953972;28;21009;-72
2023/01/22 08:11:24;;;;;;;32.90;17.50;;;0.60;99.90;;;;;;4953787;28;20213;-72
2023/01/22 08:13:50;;;;;;;36.23;19.80;;;0.70;99.90;;;;;;4952407;29;20479;-73
2023/01/22 08:16:16;;;;;;;33.37;17.70;;;0.70;99.90;;;;;;4951245;28;20487;-71
2023/01/22 08:18:41;;;;;;;33.80;18.27;;;0.70;99.90;;;;;;4952785;28;20202;-74
2023/01/22 08:21:07;;;;;;;36.80;16.87;;;0.70;99.90;;;;;;4951624;28;20713;-73
2023/01/22 08:23:32;;;;;;;31.23;16.70;;;0.80;99.90;;;;;;4952529;28;20707;-71
2023/01/22 08:25:59;;;;;;;32.20;16.83;;;0.80;99.90;;;;;;4952690;28;20228;-72
2023/01/22 08:28:25;;;;;;;26.03;14.77;;;0.90;99.90;;;;;;4953101;28;20607;-72
2023/01/22 08:30:51;;;;;;;34.07;17.57;;;0.80;99.90;;;;;;4951843;28;20492;-72
2023/01/22 08:33:16;;;;;;;31.27;16.73;;;0.90;99.90;;;;;;4952632;28;20443;-72
2023/01/22 08:35:42;;;;;;;30.37;17.10;;;0.90;99.90;;;;;;4952324;28;20697;-73
2023/01/22 08:38:07;;;;;;;32.37;16.30;;;0.90;99.90;;;;;;4952648;28;20288;-73
2023/01/22 08:40:33;;;;;;;29.60;15.10;;;0.90;99.90;;;;;;4952156;28;20196;-73
2023/01/22 08:42:58;;;;;;;33.40;17.63;;;0.90;99.90;;;;;;4951914;28;20207;-73
2023/01/22 08:45:24;;;;;;;28.23;15.87;;;0.90;99.90;;;;;;4952659;28;20198;-74
2023/01/22 08:47:54;;;;;;;24.63;13.93;;;0.90;99.90;;;;;;4952233;28;20297;-73
2023/01/22 08:50:19;;;;;;;35.07;17.07;;;0.90;99.90;;;;;;4952487;28;20210;-71
2023/01/22 08:52:45;;;;;;;31.33;16.03;;;0.90;99.90;;;;;;4951978;28;20827;-72
2023/01/22 08:55:10;;;;;;;33.20;16.80;;;1.00;99.90;;;;;;4952808;28;20202;-74
2023/01/22 08:57:36;;;;;;;38.50;17.50;;;1.00;99.90;;;;;;4952292;28;20611;-72
2023/01/22 09:00:03;;;;;;;34.50;16.60;;;1.00;99.90;;;;;;4952510;28;20229;-73
2023/01/22 09:02:28;;;;;;;28.33;15.27;;;1.10;99.90;;;;;;4952317;28;20723;-71
2023/01/22 09:04:54;;;;;;;34.23;15.63;;;1.10;99.90;;;;;;4950953;28;20461;-73
2023/01/22 09:07:19;;;;;;;33.87;16.97;;;1.10;99.90;;;;;;4952288;28;20227;-73
2023/01/22 09:09:45;;;;;;;30.80;14.47;;;1.10;99.90;;;;;;4952189;28;20617;-74
2023/01/22 09:12:10;;;;;;;27.93;14.90;;;1.10;99.90;;;;;;4952225;28;20316;-74
2023/01/22 09:14:35;;;;;;;30.67;16.57;;;1.10;99.90;;;;;;4952099;28;20670;-74
2023/01/22 09:17:01;;;;;;;31.57;17.37;;;1.10;99.90;;;;;;4952180;28;20281;-73
2023/01/22 09:19:26;;;;;;;31.20;15.27;;;1.20;99.90;;;;;;4952456;28;20213;-73
2023/01/22 09:21:52;;;;;;;32.37;16.67;;;1.30;99.90;;;;;;4952840;28;20237;-74
2023/01/22 09:24:17;;;;;;;29.60;16.50;;;1.30;99.90;;;;;;4952258;28;20217;-73
2023/01/22 09:26:43;;;;;;;28.90;15.90;;;1.40;99.90;;;;;;4952066;28;20201;-73
2023/01/22 09:29:08;;;;;;;29.97;16.47;;;1.40;99.90;;;;;;4952643;28;20618;-74
2023/01/22 09:31:35;;;;;;;28.53;16.33;;;1.50;99.90;;;;;;4953327;28;20245;-73
2023/01/22 09:34:02;;;;;;;24.90;12.87;;;1.50;99.90;;;;;;4952215;28;20249;-74
2023/01/22 09:36:28;;;;;;;27.57;14.50;;;1.60;99.90;;;;;;4953497;28;20447;-74
2023/01/22 09:38:54;;;;;;;23.37;14.70;;;1.50;99.90;;;;;;4951783;28;20573;-73
2023/01/22 09:41:29;;;;;;;25.23;14.83;;;1.60;99.90;;;;;;4952633;28;20446;-73
2023/01/22 09:43:57;;;;;;;25.90;14.10;;;1.70;99.90;;;;;;4952624;28;20218;-72
2023/01/22 09:46:29;;;;;;;26.27;14.47;;;1.80;99.90;;;;;;4953067;28;20469;-74
2023/01/22 09:49:01;;;;;;;27.73;12.40;;;1.80;99.90;;;;;;4951704;28;20477;-73
2023/01/22 09:51:27;;;;;;;26.00;14.37;;;1.90;99.90;;;;;;4952185;28;20561;-73
2023/01/22 09:53:58;;;;;;;27.03;13.50;;;2.00;99.90;;;;;;4951191;28;20597;-74
2023/01/22 09:56:45;;;;;;;23.23;13.57;;;2.10;99.90;;;;;;4952062;28;20205;-74
2023/01/22 09:59:24;;;;;;;25.33;12.30;;;2.10;99.90;;;;;;4952064;28;20538;-75
2023/01/22 10:01:56;;;;;;;22.67;12.47;;;2.00;99.90;;;;;;4951123;28;20519;-73
2023/01/22 10:04:45;;;;;;;26.90;12.50;;;2.10;99.90;;;;;;4951665;28;20497;-74
2023/01/22 10:07:22;;;;;;;25.93;11.67;;;2.10;99.90;;;;;;4951600;28;20461;-75
2023/01/22 10:09:57;;;;;;;28.97;13.43;;;2.10;99.90;;;;;;4951462;28;20466;-74
2023/01/22 10:12:28;;;;;;;137.93;69.17;;;2.10;99.90;;;;;;4951748;28;20444;-72
2023/01/22 10:14:54;;;;;;;93.20;16.33;;;2.20;99.90;;;;;;4951569;28;20889;-73
2023/01/22 10:17:33;;;;;;;82.47;13.50;;;2.20;99.90;;;;;;4951985;28;20490;-74
2023/01/22 10:20:04;;;;;;;76.90;13.50;;;2.20;99.90;;;;;;4951634;28;20463;-75
2023/01/22 10:22:30;;;;;;;79.50;14.70;;;2.20;99.90;;;;;;4951723;28;20436;-74
2023/01/22 10:24:57;;;;;;;68.73;13.20;;;2.20;99.90;;;;;;4956244;28;20825;-75
2023/01/22 10:27:32;;;;;;;213.93;60.13;;;2.20;99.90;;;;;;4953952;28;20245;-75
2023/01/22 10:30:07;;;;;;;145.63;48.17;;;2.10;99.90;;;;;;4955312;28;20544;-75
2023/01/22 10:32:33;;;;;;;124.40;23.77;;;2.00;99.90;;;;;;4955100;28;20467;-73
2023/01/22 10:35:18;;;;;;;124.87;24.37;;;2.00;99.90;;;;;;4954782;28;20458;-73
2023/01/22 10:37:47;;;;;;;128.17;26.13;;;2.00;99.90;;;;;;4953643;28;20277;-74
2023/01/22 10:40:29;;;;;;;124.73;24.20;;;2.00;99.90;;;;;;4954803;28;20538;-75
2023/01/22 10:43:08;;;;;;;126.63;25.40;;;2.00;99.90;;;;;;4954174;29;20446;-73
2023/01/22 10:45:33;;;;;;;131.37;25.43;;;2.00;99.90;;;;;;4954442;28;20520;-73
2023/01/22 10:48:12;;;;;;;135.87;25.33;;;2.00;99.90;;;;;;4954606;28;20478;-73
2023/01/22 10:50:38;;;;;;;120.30;25.10;;;1.90;99.90;;;;;;4947197;28;20601;-73
2023/01/22 10:53:06;;;;;;;113.40;21.07;;;1.90;99.90;;;;;;4953478;29;20455;-73
2023/01/22 10:55:37;;;;;;;157.63;68.60;;;1.90;99.90;;;;;;4954046;28;20215;-71
2023/01/22 10:58:13;;;;;;;120.33;21.80;;;1.90;99.90;;;;;;4954697;28;20465;-73
2023/01/22 11:00:39;;;;;;;124.23;22.50;;;1.90;99.90;;;;;;4954150;28;20595;-73
2023/01/22 11:03:37;;;;;;;126.37;24.57;;;2.00;99.90;;;;;;4953883;29;20447;-73
2023/01/22 11:06:32;;;;;;;121.97;22.03;;;2.00;99.90;;;;;;4953427;28;20552;-72
2023/01/22 11:09:10;;;;;;;126.83;24.67;;;2.00;99.90;;;;;;4953391;29;20935;-73
2023/01/22 11:11:41;;;;;;;124.37;24.13;;;2.10;99.90;;;;;;4953360;28;20486;-73
2023/01/22 11:14:17;;;;;;;124.37;24.77;;;2.00;99.90;;;;;;4953162;29;20966;-73
2023/01/22 11:16:45;;;;;;;125.83;23.83;;;2.00;99.90;;;;;;4953619;29;20438;-74
2023/01/22 11:19:15;;;;;;;128.03;24.07;;;2.00;99.90;;;;;;4953480;28;20453;-73
2023/01/22 11:21:53;;;;;;;133.27;26.80;;;2.10;99.90;;;;;;4952983;28;20517;-72
2023/01/22 11:24:37;;;;;;;119.30;21.70;;;2.10;99.90;;;;;;4947049;29;20517;-74
2023/01/22 11:27:35;;;;;;;116.70;22.37;;;2.10;99.90;;;;;;4953667;28;20875;-73
2023/01/22 11:30:15;;;;;;;124.47;23.53;;;2.10;99.90;;;;;;4952992;28;21297;-73
2023/01/22 11:32:53;;;;;;;131.67;27.23;;;2.10;99.90;;;;;;4951721;28;20478;-72
2023/01/22 11:35:19;;;;;;;124.77;23.50;;;2.00;99.90;;;;;;4950972;28;20866;-72
2023/01/22 11:38:00;;;;;;;124.17;25.50;;;2.10;99.90;;;;;;4953539;28;20469;-72
2023/01/22 11:40:29;;;;;;;123.20;25.00;;;2.10;99.90;;;;;;4947914;28;20218;-72
2023/01/22 11:43:17;;;;;;;126.10;22.90;;;2.10;99.90;;;;;;4952800;28;20890;-72
2023/01/22 11:46:01;;;;;;;134.80;28.47;;;2.20;99.90;;;;;;4953638;28;20490;-73
2023/01/22 11:48:46;;;;;;;133.70;28.77;;;2.20;99.90;;;;;;4952877;29;20450;-72
2023/01/22 11:51:18;;;;;;;127.07;26.57;;;2.20;99.90;;;;;;4945490;28;20837;-73
2023/01/22 11:54:08;;;;;;;131.13;28.17;;;2.20;99.90;;;;;;4953571;28;21002;-73
2023/01/22 11:56:59;;;;;;;127.00;26.20;;;2.20;99.90;;;;;;4953224;28;20436;-73
2023/01/22 11:59:35;;;;;;;132.00;27.50;;;2.30;99.90;;;;;;4947756;29;20536;-73
2023/01/22 12:02:21;;;;;;;124.70;25.27;;;2.30;99.90;;;;;;4949644;28;20468;-74
2023/01/22 12:05:17;;;;;;;124.13;26.40;;;2.40;99.90;;;;;;4953331;28;20448;-73
2023/01/22 12:08:01;;;;;;;128.70;26.77;;;2.40;99.90;;;;;;4952424;28;20426;-72
2023/01/22 12:10:38;;;;;;;121.63;22.03;;;2.50;99.90;;;;;;4948282;28;20475;-73
2023/01/22 12:13:18;;;;;;;119.53;22.23;;;2.50;99.90;;;;;;4953611;28;20419;-72
2023/01/22 12:16:12;;;;;;;123.77;23.27;;;2.40;99.90;;;;;;4953675;28;20427;-71
2023/01/22 12:19:04;;;;;;;121.10;23.57;;;2.50;99.90;;;;;;4953286;28;20418;-74
2023/01/22 12:21:38;;;;;;;117.27;22.60;;;2.50;99.90;;;;;;4951426;28;20471;-75
2023/01/22 12:24:33;;;;;;;119.00;22.47;;;2.60;99.90;;;;;;4953131;28;20426;-73
2023/01/22 12:27:00;;;;;;;115.37;20.80;;;2.60;99.90;;;;;;4958691;28;20496;-74
2023/01/22 12:29:35;;;;;;;115.37;20.23;;;2.60;99.90;;;;;;4953808;28;20434;-75
2023/01/22 12:32:09;;;;;;;107.73;17.50;;;2.60;99.90;;;;;;4952994;28;20489;-74
2023/01/22 12:34:55;;;;;;;110.97;16.23;;;2.70;99.90;;;;;;4953444;28;20946;-74
2023/01/22 12:37:25;;;;;;;18.50;11.07;;;2.70;99.90;;;;;;4947071;29;20477;-74
2023/01/22 12:40:09;;;;;;;17.60;10.97;;;2.60;99.90;;;;;;4953379;28;20420;-74
2023/01/22 12:42:38;;;;;;;15.10;9.23;;;2.70;99.90;;;;;;4953241;28;20431;-73
2023/01/22 12:45:26;;;;;;;1999.90;999.90;;;2.60;99.90;;;;;;4953018;28;20431;-73
2023/01/22 12:48:00;;;;;;;14.90;9.07;;;2.60;99.90;;;;;;4953038;28;20429;-72
2023/01/22 12:50:26;;;;;;;19.37;11.40;;;2.50;99.90;;;;;;4953394;28;21044;-72
2023/01/22 12:53:04;;;;;;;20.17;10.10;;;2.40;99.90;;;;;;4953047;28;20458;-72
2023/01/22 12:55:33;;;;;;;299.87;108.50;;;2.40;99.90;;;;;;4953412;28;20178;-73
2023/01/22 12:58:00;;;;;;;20.23;10.87;;;2.40;99.90;;;;;;4952065;28;20974;-73
2023/01/22 13:00:35;;;;;;;18.00;10.53;;;2.30;99.90;;;;;;4953348;28;20434;-73
2023/01/22 13:03:03;;;;;;;18.00;9.83;;;2.30;99.90;;;;;;4951800;28;20434;-73
2023/01/22 13:05:29;;;;;;;14.03;10.50;;;2.30;99.90;;;;;;4953214;28;20774;-69
2023/01/22 13:08:19;;;;;;;15.77;9.77;;;2.30;99.90;;;;;;4952889;28;20424;-73
2023/01/22 13:10:57;;;;;;;17.30;9.70;;;2.30;99.90;;;;;;4953027;28;20223;-73
2023/01/22 13:13:39;;;;;;;17.87;10.30;;;2.40;99.90;;;;;;4946128;29;20501;-73
2023/01/22 13:16:17;;;;;;;14.53;9.47;;;2.40;99.90;;;;;;4952522;28;20420;-73
2023/01/22 13:18:48;;;;;;;13.40;10.10;;;2.50;99.90;;;;;;4953321;28;20498;-73
2023/01/22 13:21:16;;;;;;;15.10;9.40;;;2.50;99.90;;;;;;4952786;28;20439;-73
2023/01/22 13:23:48;;;;;;;14.80;9.90;;;2.50;99.90;;;;;;4952862;28;20424;-73
2023/01/22 13:26:24;;;;;;;14.23;9.40;;;2.40;99.90;;;;;;4952725;28;20452;-73
2023/01/22 13:28:53;;;;;;;35.87;10.03;;;2.40;99.90;;;;;;4953023;28;20428;-71
2023/01/22 13:31:18;;;;;;;17.87;9.43;;;2.40;99.90;;;;;;4952097;28;20483;-74
2023/01/22 13:33:58;;;;;;;14.90;9.50;;;2.30;99.90;;;;;;4952892;28;20513;-74
2023/01/22 13:36:25;;;;;;;17.53;9.47;;;2.30;99.90;;;;;;4946126;29;20260;-73
2023/01/22 13:38:56;;;;;;;13.90;8.20;;;2.20;99.90;;;;;;4952873;28;20435;-72
2023/01/22 13:41:35;;;;;;;14.47;8.13;;;2.20;99.90;;;;;;4946046;28;20494;-73
2023/01/22 13:44:02;;;;;;;12.90;8.73;;;2.20;99.90;;;;;;4952104;29;20806;-73
2023/01/22 13:46:28;;;;;;;11.10;7.10;;;2.20;99.90;;;;;;4952593;28;20427;-74
2023/01/22 13:49:04;;;;;;;11.33;7.50;;;2.20;99.90;;;;;;4951351;28;20453;-74
2023/01/22 13:51:32;;;;;;;13.33;8.10;;;2.20;99.90;;;;;;4945323;29;20739;-73
2023/01/22 13:53:58;;;;;;;12.27;7.53;;;2.30;99.90;;;;;;4945202;28;20473;-76
2023/01/22 13:56:26;;;;;;;13.30;9.00;;;2.20;99.90;;;;;;4952056;28;20985;-73
2023/01/22 13:59:13;;;;;;;12.37;8.33;;;2.20;99.90;;;;;;4953574;28;20289;-72
2023/01/22 14:01:39;;;;;;;13.37;8.67;;;2.20;99.90;;;;;;4952898;29;20462;-74
2023/01/22 14:04:23;;;;;;;14.40;8.07;;;2.30;99.90;;;;;;4954569;28;20878;-73
2023/01/22 14:06:48;;;;;;;13.53;8.70;;;2.20;99.90;;;;;;4955716;29;20286;-74
2023/01/22 14:09:28;;;;;;;16.63;10.13;;;2.20;99.90;;;;;;4955032;28;20933;-74
2023/01/22 14:11:53;;;;;;;1999.90;999.90;;;2.20;99.90;;;;;;4954148;28;20868;-73
2023/01/22 14:14:19;;;;;;;1999.90;999.90;;;2.20;99.90;;;;;;4954928;28;20454;-73
2023/01/22 14:16:45;;;;;;;14.23;9.47;;;2.30;99.90;;;;;;4955784;28;20199;-74